createdAt,value
2018-08-16T00:02:18.807Z,37.50
2018-08-16T00:04:47.308Z,37.70
2018-08-16T00:07:15.847Z,41.30
2018-08-16T00:09:44.441Z,40.10
2018-08-16T00:12:13.013Z,32.83
2018-08-16T00:14:41.602Z,37.83
2018-08-16T00:17:10.930Z,29.80
2018-08-16T00:19:40.228Z,37.50
2018-08-16T00:22:08.807Z,43.30
2018-08-16T00:24:37.701Z,46.40
2018-08-16T00:27:06.234Z,47.20
2018-08-16T00:29:34.826Z,46.30
2018-08-16T00:32:03.369Z,48.40
2018-08-16T00:34:31.901Z,46.60
2018-08-16T00:37:00.453Z,57.60
2018-08-16T00:39:28.960Z,59.40
2018-08-16T00:41:57.492Z,54.70
2018-08-16T00:44:26.041Z,47.97
2018-08-16T00:46:54.551Z,47.13
2018-08-16T00:49:23.106Z,46.83
2018-08-16T00:51:51.639Z,43.80
2018-08-16T00:54:20.128Z,58.27
2018-08-16T00:56:48.668Z,56.07
2018-08-16T00:59:17.235Z,56.93
2018-08-16T01:01:45.734Z,54.10
2018-08-16T01:04:14.268Z,56.37
2018-08-16T01:06:42.823Z,55.30
2018-08-16T01:09:11.936Z,51.80
2018-08-16T01:11:40.599Z,48.30
2018-08-16T01:14:09.790Z,53.77
2018-08-16T01:16:38.587Z,63.67
2018-08-16T01:19:07.414Z,51.33
2018-08-16T01:21:35.944Z,70.67
2018-08-16T01:24:04.552Z,70.43
2018-08-16T01:26:33.087Z,65.70
2018-08-16T01:29:01.631Z,61.80
2018-08-16T01:31:30.175Z,78.70
2018-08-16T01:33:59.199Z,75.07
2018-08-16T01:36:27.815Z,72.00
2018-08-16T01:38:56.467Z,74.30
2018-08-16T01:41:25.030Z,68.83
2018-08-16T01:43:53.578Z,68.63
2018-08-16T01:46:22.120Z,81.33
2018-08-16T01:48:50.673Z,94.40
2018-08-16T01:51:19.367Z,79.13
2018-08-16T01:53:47.884Z,84.23
2018-08-16T01:56:16.440Z,82.90
2018-08-16T01:58:45.001Z,85.20
2018-08-16T02:01:13.525Z,82.67
2018-08-16T02:03:42.045Z,68.77
2018-08-16T02:06:10.670Z,83.27
2018-08-16T02:08:39.244Z,80.53
2018-08-16T02:11:07.780Z,82.93
2018-08-16T02:13:36.296Z,87.23
2018-08-16T02:16:04.849Z,81.60
2018-08-16T02:18:33.378Z,85.63
2018-08-16T02:21:01.908Z,78.20
2018-08-16T02:23:30.410Z,82.27
2018-08-16T02:25:58.970Z,82.57
2018-08-16T02:28:27.518Z,81.03
2018-08-16T02:30:56.036Z,69.13
2018-08-16T02:33:24.557Z,77.00
2018-08-16T02:35:53.081Z,75.33
2018-08-16T02:38:21.613Z,96.27
2018-08-16T02:40:50.112Z,74.03
2018-08-16T02:43:18.686Z,81.80
2018-08-16T02:45:47.329Z,73.27
2018-08-16T02:48:15.837Z,79.83
2018-08-16T02:50:44.407Z,72.27
2018-08-16T02:53:12.921Z,68.03
2018-08-16T02:55:41.470Z,71.00
2018-08-16T02:58:09.994Z,79.60
2018-08-16T03:00:38.532Z,78.13
2018-08-16T03:03:07.034Z,73.47
2018-08-16T03:05:35.616Z,79.77
2018-08-16T03:08:04.279Z,67.00
2018-08-16T03:10:33.147Z,75.33
2018-08-16T03:13:01.754Z,73.80
2018-08-16T03:15:30.338Z,78.03
2018-08-16T03:17:58.894Z,65.53
2018-08-16T03:20:27.427Z,67.87
2018-08-16T03:22:55.943Z,65.83
2018-08-16T03:25:24.495Z,79.63
2018-08-16T03:27:53.025Z,74.33
2018-08-16T03:30:21.614Z,82.67
2018-08-16T03:32:50.220Z,65.47
2018-08-16T03:35:18.843Z,64.40
2018-08-16T03:37:47.396Z,61.07
2018-08-16T03:40:15.975Z,76.93
2018-08-16T03:42:44.542Z,73.97
2018-08-16T03:45:13.150Z,81.97
2018-08-16T03:47:41.670Z,82.60
2018-08-16T03:50:10.292Z,72.00
2018-08-16T03:52:39.107Z,59.40
2018-08-16T03:55:07.701Z,68.33
2018-08-16T03:57:36.237Z,72.37
2018-08-16T04:00:05.946Z,69.67
2018-08-16T04:02:34.508Z,65.87
2018-08-16T04:05:03.048Z,50.50
2018-08-16T04:07:31.604Z,52.50
2018-08-16T04:10:00.098Z,49.13
2018-08-16T04:12:28.702Z,51.47
2018-08-16T04:14:57.226Z,51.83
2018-08-16T04:17:29.136Z,45.50
2018-08-16T04:19:57.658Z,45.80
2018-08-16T04:22:26.179Z,46.83
2018-08-16T04:24:54.666Z,46.93
2018-08-16T04:27:23.203Z,51.70
2018-08-16T04:29:51.676Z,44.13
2018-08-16T04:32:20.161Z,43.43
2018-08-16T04:34:48.757Z,39.27
2018-08-16T04:37:17.501Z,52.17
2018-08-16T04:39:46.208Z,41.57
2018-08-16T04:42:14.807Z,34.77
2018-08-16T04:44:43.565Z,40.07
2018-08-16T04:47:12.086Z,32.43
2018-08-16T04:49:40.628Z,42.90
2018-08-16T04:52:09.221Z,42.90
2018-08-16T04:54:37.813Z,38.23
2018-08-16T04:57:06.383Z,33.70
2018-08-16T04:59:34.879Z,33.10
2018-08-16T05:02:03.426Z,35.90
2018-08-16T05:04:31.971Z,31.67
2018-08-16T05:07:00.570Z,32.07
2018-08-16T05:09:29.162Z,29.03
2018-08-16T05:11:57.681Z,31.50
2018-08-16T05:14:26.243Z,41.13
2018-08-16T05:16:54.749Z,33.33
2018-08-16T05:19:23.285Z,29.67
2018-08-16T05:21:51.814Z,34.77
2018-08-16T05:24:20.533Z,35.67
2018-08-16T05:26:49.089Z,31.93
2018-08-16T05:29:17.586Z,35.30
2018-08-16T05:31:46.147Z,32.97
2018-08-16T05:34:14.655Z,31.60
2018-08-16T05:36:43.165Z,28.53
2018-08-16T05:39:12.833Z,27.20
2018-08-16T05:41:41.655Z,26.93
2018-08-16T05:44:10.235Z,29.83
2018-08-16T05:46:38.767Z,28.80
2018-08-16T05:49:07.386Z,23.70
2018-08-16T05:51:35.905Z,24.60
2018-08-16T05:54:04.462Z,32.03
2018-08-16T05:56:33.141Z,25.60
2018-08-16T05:59:01.695Z,29.33
2018-08-16T06:01:30.310Z,27.60
2018-08-16T06:03:58.887Z,24.30
2018-08-16T06:06:27.462Z,29.13
2018-08-16T06:08:56.029Z,23.63
2018-08-16T06:11:24.565Z,27.20
2018-08-16T06:13:53.257Z,27.70
2018-08-16T06:16:21.810Z,24.90
2018-08-16T06:18:50.369Z,24.57
2018-08-16T06:21:18.898Z,24.90
2018-08-16T06:23:47.453Z,21.47
2018-08-16T06:26:16.021Z,23.83
2018-08-16T06:28:44.609Z,23.10
2018-08-16T06:31:13.189Z,21.47
2018-08-16T06:33:41.701Z,26.27
2018-08-16T06:36:10.258Z,19.00
2018-08-16T06:38:38.778Z,29.57
2018-08-16T06:41:07.353Z,18.73
2018-08-16T06:43:35.894Z,22.20
2018-08-16T06:46:04.416Z,23.23
2018-08-16T06:48:32.928Z,20.93
2018-08-16T06:51:01.436Z,27.10
2018-08-16T06:53:30.022Z,22.73
2018-08-16T06:55:58.581Z,24.43
2018-08-16T06:58:27.339Z,23.97
2018-08-16T07:00:55.851Z,18.97
2018-08-16T07:03:24.541Z,19.50
2018-08-16T07:05:53.168Z,21.00
2018-08-16T07:08:21.662Z,26.50
2018-08-16T07:10:50.204Z,19.23
2018-08-16T07:13:18.755Z,26.30
2018-08-16T07:15:47.312Z,20.30
2018-08-16T07:18:15.883Z,17.60
2018-08-16T07:20:44.465Z,23.07
2018-08-16T07:23:12.985Z,17.60
2018-08-16T07:25:41.516Z,19.30
2018-08-16T07:28:10.108Z,17.63
2018-08-16T07:30:38.737Z,15.17
2018-08-16T07:33:07.300Z,20.83
2018-08-16T07:35:35.854Z,20.53
2018-08-16T07:38:04.473Z,18.97
2018-08-16T07:40:33.708Z,19.20
2018-08-16T07:43:02.261Z,17.17
2018-08-16T07:45:30.832Z,22.43
2018-08-16T07:47:59.393Z,17.70
2018-08-16T07:50:27.963Z,22.17
2018-08-16T07:52:56.505Z,21.40
2018-08-16T07:55:25.096Z,18.30
2018-08-16T07:57:53.667Z,18.07
2018-08-16T08:00:22.204Z,12.30
2018-08-16T08:02:50.814Z,17.37
2018-08-16T08:05:19.365Z,20.07
2018-08-16T08:07:47.922Z,13.20
2018-08-16T08:10:16.534Z,13.30
2018-08-16T08:12:45.132Z,13.03
2018-08-16T08:15:14.907Z,14.83
2018-08-16T08:17:43.526Z,11.27
2018-08-16T08:20:15.542Z,12.37
2018-08-16T08:22:44.187Z,11.93
2018-08-16T08:25:13.968Z,13.50
2018-08-16T08:27:42.814Z,13.33
2018-08-16T08:30:14.331Z,12.63
2018-08-16T08:32:42.869Z,14.33
2018-08-16T08:35:11.426Z,10.70
2018-08-16T08:37:51.208Z,10.30
2018-08-16T08:40:19.794Z,9.40
2018-08-16T08:42:48.390Z,10.70
2018-08-16T08:45:17.055Z,9.63
2018-08-16T08:47:46.877Z,7.93
2018-08-16T08:50:15.855Z,12.67
2018-08-16T08:52:44.406Z,11.13
2018-08-16T08:55:24.406Z,12.87
2018-08-16T08:58:04.150Z,8.30
2018-08-16T09:00:32.665Z,8.70
2018-08-16T09:03:01.153Z,8.03
2018-08-16T09:05:29.716Z,21.33
2018-08-16T09:07:58.226Z,9.33
2018-08-16T09:10:51.881Z,8.63
2018-08-16T09:13:32.632Z,8.83
2018-08-16T09:16:04.517Z,9.80
2018-08-16T09:18:33.165Z,9.43
2018-08-16T09:21:01.686Z,9.17
2018-08-16T09:23:30.239Z,8.47
2018-08-16T09:25:58.816Z,7.33
2018-08-16T09:28:27.405Z,6.60
2018-08-16T09:31:07.265Z,7.63
2018-08-16T09:33:47.013Z,8.40
2018-08-16T09:36:15.538Z,7.83
2018-08-16T09:38:44.064Z,7.13
2018-08-16T09:41:12.610Z,8.63
2018-08-16T09:43:41.161Z,8.43
2018-08-16T09:47:18.750Z,7.70
2018-08-16T09:49:51.845Z,8.90
2018-08-16T09:52:21.220Z,8.37
2018-08-16T09:54:50.428Z,7.20
2018-08-16T09:57:19.235Z,9.03
2018-08-16T09:59:47.794Z,7.90
2018-08-16T10:02:18.058Z,7.97
2018-08-16T10:04:46.608Z,9.67
2018-08-16T10:07:15.153Z,9.87
2018-08-16T10:09:43.653Z,8.33
2018-08-16T10:12:12.222Z,10.60
2018-08-16T10:14:40.727Z,9.03
2018-08-16T10:17:09.234Z,8.90
2018-08-16T10:19:37.810Z,7.83
2018-08-16T10:22:06.518Z,8.93
2018-08-16T10:24:35.069Z,9.93
2018-08-16T10:27:03.878Z,11.67
2018-08-16T10:29:32.308Z,11.33
2018-08-16T10:32:00.816Z,17.60
2018-08-16T10:34:29.330Z,11.60
2018-08-16T10:36:57.866Z,14.87
2018-08-16T10:39:26.427Z,13.90
2018-08-16T10:41:54.966Z,9.93
2018-08-16T10:44:23.519Z,11.17
2018-08-16T10:46:51.984Z,16.00
2018-08-16T10:49:20.512Z,12.70
2018-08-16T10:51:49.048Z,10.23
2018-08-16T10:54:17.628Z,12.80
2018-08-16T10:56:46.233Z,10.20
2018-08-16T10:59:14.769Z,11.13
2018-08-16T11:01:43.342Z,12.13
2018-08-16T11:04:11.915Z,12.40
2018-08-16T11:06:40.438Z,9.90
2018-08-16T11:09:10.014Z,13.70
2018-08-16T11:11:39.022Z,11.70
2018-08-16T11:14:07.619Z,13.57
2018-08-16T11:16:36.147Z,10.17
2018-08-16T11:19:04.726Z,11.30
2018-08-16T11:21:33.298Z,12.17
2018-08-16T11:24:01.823Z,9.40
2018-08-16T11:26:30.382Z,10.97
2018-08-16T11:28:58.957Z,12.07
2018-08-16T11:31:27.480Z,12.17
2018-08-16T11:33:55.989Z,20.20
2018-08-16T11:36:24.520Z,11.90
2018-08-16T11:38:53.086Z,11.27
2018-08-16T11:41:21.636Z,11.87
2018-08-16T11:43:50.292Z,12.63
2018-08-16T11:46:18.810Z,11.40
2018-08-16T11:48:47.333Z,13.13
2018-08-16T11:51:15.839Z,11.23
2018-08-16T11:53:44.415Z,12.50
2018-08-16T11:56:12.976Z,11.37
2018-08-16T11:58:41.538Z,13.17
2018-08-16T12:01:10.013Z,11.53
2018-08-16T12:03:38.597Z,10.83
2018-08-16T12:06:07.148Z,9.93
2018-08-16T12:08:35.659Z,10.43
2018-08-16T12:11:04.254Z,9.73
2018-08-16T12:13:32.796Z,14.23
2018-08-16T12:16:01.282Z,9.97
2018-08-16T12:18:29.799Z,11.13
2018-08-16T12:20:58.397Z,13.33
2018-08-16T12:23:26.908Z,10.73
2018-08-16T12:25:55.493Z,12.20
2018-08-16T12:28:24.030Z,15.40
2018-08-16T12:30:52.661Z,13.73
2018-08-16T12:33:21.213Z,11.77
2018-08-16T12:35:49.742Z,11.47
2018-08-16T12:38:19.097Z,9.73
2018-08-16T12:40:50.107Z,10.63
2018-08-16T12:43:16.190Z,12.33
2018-08-16T12:45:44.712Z,10.40
2018-08-16T12:48:13.293Z,11.20
2018-08-16T12:50:41.861Z,11.17
2018-08-16T12:53:10.408Z,9.13
2018-08-16T12:55:39.048Z,9.70
2018-08-16T12:58:07.580Z,9.63
2018-08-16T13:00:36.138Z,11.67
2018-08-16T13:03:04.749Z,14.63
2018-08-16T13:05:33.360Z,9.20
2018-08-16T13:08:01.888Z,9.83
2018-08-16T13:10:30.514Z,9.53
2018-08-16T13:12:59.158Z,9.87
2018-08-16T13:15:27.690Z,9.57
2018-08-16T13:17:56.292Z,9.23
2018-08-16T13:20:24.805Z,13.27
2018-08-16T13:22:53.356Z,9.00
2018-08-16T13:25:21.901Z,9.20
2018-08-16T13:27:50.411Z,8.43
2018-08-16T13:30:19.024Z,9.30
2018-08-16T13:32:47.699Z,9.23
2018-08-16T13:35:16.195Z,9.60
2018-08-16T13:37:44.864Z,7.17
2018-08-16T13:40:13.489Z,7.93
2018-08-16T13:42:42.002Z,7.73
2018-08-16T13:45:10.531Z,8.33
2018-08-16T13:47:39.101Z,8.63
2018-08-16T13:50:07.658Z,9.63
2018-08-16T13:52:36.193Z,9.33
2018-08-16T13:55:04.881Z,8.53
2018-08-16T13:57:33.365Z,9.13
2018-08-16T14:00:02.020Z,7.73
2018-08-16T14:02:30.565Z,8.23
2018-08-16T14:04:59.066Z,7.40
2018-08-16T14:07:28.286Z,9.90
2018-08-16T14:09:56.806Z,8.93
2018-08-16T14:12:25.320Z,8.90
2018-08-16T14:14:53.813Z,17.10
2018-08-16T14:17:22.341Z,10.60
2018-08-16T14:19:50.865Z,9.00
2018-08-16T14:22:19.369Z,8.87
2018-08-16T14:24:48.087Z,10.40
2018-08-16T14:27:16.712Z,9.73
2018-08-16T14:29:45.236Z,9.77
2018-08-16T14:32:13.819Z,9.97
2018-08-16T14:34:42.279Z,11.53
2018-08-16T14:37:10.812Z,10.10
2018-08-16T14:39:39.359Z,9.53
2018-08-16T14:42:07.922Z,10.77
2018-08-16T14:44:36.432Z,12.00
2018-08-16T14:47:05.531Z,10.67
2018-08-16T14:49:34.249Z,9.77
2018-08-16T14:52:02.893Z,12.20
2018-08-16T14:54:31.450Z,9.53
2018-08-16T14:56:59.950Z,9.20
2018-08-16T14:59:28.443Z,12.60
2018-08-16T15:01:56.991Z,9.00
2018-08-16T15:04:25.593Z,9.63
2018-08-16T15:06:54.131Z,13.63
2018-08-16T15:09:22.684Z,8.60
2018-08-16T15:11:51.203Z,6.90
2018-08-16T15:14:19.720Z,10.37
2018-08-16T15:16:48.375Z,8.90
2018-08-16T15:19:17.353Z,10.27
2018-08-16T15:21:45.861Z,11.17
2018-08-16T15:24:17.010Z,8.53
2018-08-16T15:26:45.751Z,9.40
2018-08-16T15:29:14.257Z,9.13
2018-08-16T15:31:42.818Z,8.80
2018-08-16T15:34:11.399Z,9.93
2018-08-16T15:36:40.201Z,9.10
2018-08-16T15:39:09.816Z,7.83
2018-08-16T15:41:38.694Z,8.40
2018-08-16T15:44:08.097Z,10.60
2018-08-16T15:46:36.663Z,8.53
2018-08-16T15:49:05.460Z,8.40
2018-08-16T15:51:34.045Z,8.20
2018-08-16T15:54:02.862Z,9.70
2018-08-16T15:56:31.434Z,8.27
2018-08-16T15:59:00.067Z,8.83
2018-08-16T16:01:28.669Z,9.27
2018-08-16T16:03:57.220Z,9.53
2018-08-16T16:06:25.828Z,9.27
2018-08-16T16:08:54.367Z,12.57
2018-08-16T16:11:22.859Z,10.10
2018-08-16T16:16:57.205Z,8.83
2018-08-16T16:19:25.861Z,10.23
2018-08-16T16:21:54.499Z,9.67
2018-08-16T16:24:23.161Z,8.87
2018-08-16T16:26:51.803Z,8.17
2018-08-16T16:29:20.329Z,9.67
2018-08-16T16:31:48.895Z,10.50
2018-08-16T16:34:17.457Z,9.23
2018-08-16T16:36:46.049Z,16.97
2018-08-16T16:39:14.734Z,16.53
2018-08-16T16:41:43.306Z,11.47
2018-08-16T16:44:11.857Z,9.63
2018-08-16T16:46:40.472Z,7.60
2018-08-16T16:49:09.016Z,10.33
2018-08-16T16:51:37.515Z,7.93
2018-08-16T16:54:06.380Z,9.40
2018-08-16T16:56:34.940Z,10.30
2018-08-16T16:59:03.512Z,11.13
2018-08-16T17:01:32.098Z,8.27
2018-08-16T17:04:00.810Z,9.53
2018-08-16T17:06:29.445Z,8.50
2018-08-16T17:08:57.999Z,9.50
2018-08-16T17:11:26.532Z,9.30
2018-08-16T17:13:55.235Z,8.47
2018-08-16T17:16:24.033Z,8.47
2018-08-16T17:18:52.622Z,11.23
2018-08-16T17:21:21.274Z,8.80
2018-08-16T17:23:49.812Z,10.33
2018-08-16T17:26:18.334Z,9.63
2018-08-16T17:28:46.879Z,9.03
2018-08-16T17:31:15.406Z,7.30
2018-08-16T17:33:43.901Z,8.87
2018-08-16T17:36:12.456Z,14.20
2018-08-16T17:38:41.029Z,9.83
2018-08-16T17:41:09.583Z,9.80
2018-08-16T17:43:38.077Z,10.73
2018-08-16T17:46:06.818Z,9.30
2018-08-16T17:48:35.343Z,9.27
2018-08-16T17:51:03.991Z,9.70
2018-08-16T17:53:33.488Z,11.53
2018-08-16T17:56:01.986Z,9.20
2018-08-16T17:58:30.801Z,19.73
2018-08-16T18:00:59.351Z,9.47
2018-08-16T18:03:27.965Z,8.93
2018-08-16T18:05:56.521Z,8.10
2018-08-16T18:08:25.065Z,10.07
2018-08-16T18:10:53.598Z,10.30
2018-08-16T18:13:22.096Z,12.77
2018-08-16T18:15:50.670Z,18.13
2018-08-16T18:18:19.159Z,12.37
2018-08-16T18:20:47.729Z,11.53
2018-08-16T18:23:16.286Z,10.17
2018-08-16T18:25:44.893Z,15.40
2018-08-16T18:28:13.474Z,11.53
2018-08-16T18:30:42.023Z,12.40
2018-08-16T18:33:10.734Z,16.90
2018-08-16T18:38:33.574Z,14.57
2018-08-16T18:41:02.108Z,12.93
2018-08-16T18:43:30.764Z,14.97
2018-08-16T18:45:59.325Z,12.40
2018-08-16T18:48:28.035Z,15.07
2018-08-16T18:50:56.569Z,13.53
2018-08-16T18:53:25.117Z,14.30
2018-08-16T18:55:53.655Z,17.43
2018-08-16T18:58:22.291Z,15.53
2018-08-16T19:00:50.815Z,21.00
2018-08-16T19:03:19.460Z,15.27
2018-08-16T19:05:48.124Z,13.27
2018-08-16T19:08:16.715Z,12.43
2018-08-16T19:10:45.319Z,13.40
2018-08-16T19:13:13.845Z,13.43
2018-08-16T19:15:42.362Z,12.30
2018-08-16T19:18:11.186Z,19.83
2018-08-16T19:20:39.756Z,18.67
2018-08-16T19:23:08.312Z,15.30
2018-08-16T19:25:36.872Z,19.60
2018-08-16T19:28:05.493Z,11.77
2018-08-16T19:30:34.048Z,30.77
2018-08-16T19:33:02.592Z,15.90
2018-08-16T19:35:31.326Z,18.30
2018-08-16T19:37:59.866Z,13.27
2018-08-16T19:40:28.736Z,14.00
2018-08-16T19:42:57.288Z,19.47
2018-08-16T19:45:25.803Z,13.40
2018-08-16T19:47:54.588Z,14.23
2018-08-16T19:50:23.191Z,13.60
2018-08-16T19:52:51.719Z,15.90
2018-08-16T19:55:20.634Z,24.80
2018-08-16T19:57:49.179Z,15.30
2018-08-16T20:00:17.682Z,13.60
2018-08-16T20:02:46.206Z,17.70
2018-08-16T20:05:14.734Z,14.10
2018-08-16T20:07:43.391Z,13.57
2018-08-16T20:10:12.411Z,15.50
2018-08-16T20:12:40.935Z,12.77
2018-08-16T20:15:09.950Z,14.57
2018-08-16T20:17:38.738Z,16.60
2018-08-16T20:20:08.083Z,11.10
2018-08-16T20:22:36.603Z,10.97
2018-08-16T20:25:05.318Z,12.20
2018-08-16T20:27:33.834Z,11.17
2018-08-16T20:30:02.414Z,11.90
2018-08-16T20:32:30.958Z,15.13
2018-08-16T20:34:59.482Z,13.40
2018-08-16T20:37:28.162Z,15.10
2018-08-16T20:39:56.708Z,14.23
2018-08-16T20:42:25.221Z,13.23
2018-08-16T20:44:53.877Z,18.40
2018-08-16T20:47:22.443Z,11.13
2018-08-16T20:49:50.960Z,28.23
2018-08-16T20:52:19.495Z,13.47
2018-08-16T20:54:48.029Z,13.13
2018-08-16T20:57:16.643Z,12.23
2018-08-16T20:59:45.236Z,16.77
2018-08-16T21:02:13.785Z,11.87
2018-08-16T21:04:42.319Z,17.03
2018-08-16T21:07:10.881Z,12.80
2018-08-16T21:09:39.400Z,13.03
2018-08-16T21:12:07.960Z,14.13
2018-08-16T21:14:36.484Z,13.40
2018-08-16T21:17:05.090Z,11.57
2018-08-16T21:19:33.588Z,15.97
2018-08-16T21:22:02.113Z,29.13
2018-08-16T21:24:30.641Z,17.57
2018-08-16T21:26:59.156Z,15.10
2018-08-16T21:29:27.664Z,14.77
2018-08-16T21:31:56.201Z,18.80
2018-08-16T21:34:24.804Z,14.97
2018-08-16T21:36:53.272Z,12.03
2018-08-16T21:39:21.819Z,12.80
2018-08-16T21:41:50.367Z,12.73
2018-08-16T21:44:18.899Z,14.90
2018-08-16T21:46:47.468Z,13.13
2018-08-16T21:49:15.981Z,13.30
2018-08-16T21:51:44.500Z,13.93
2018-08-16T21:54:13.031Z,18.23
2018-08-16T21:56:41.604Z,13.83
2018-08-16T21:59:10.149Z,22.33
2018-08-16T22:01:38.821Z,20.43
2018-08-16T22:04:07.392Z,21.57
2018-08-16T22:06:47.267Z,17.13
2018-08-16T22:09:15.813Z,16.10
2018-08-16T22:11:44.345Z,17.73
2018-08-16T22:14:12.884Z,18.47
2018-08-16T22:16:41.422Z,24.60
2018-08-16T22:19:09.962Z,20.53
2018-08-16T22:21:38.537Z,29.70
2018-08-16T22:24:07.159Z,27.87
2018-08-16T22:26:35.720Z,18.10
2018-08-16T22:29:04.313Z,16.27
2018-08-16T22:31:32.850Z,15.90
2018-08-16T22:34:01.434Z,22.23
2018-08-16T22:36:30.033Z,23.70
2018-08-16T22:38:58.517Z,15.33
2018-08-16T22:41:27.084Z,23.20
2018-08-16T22:43:55.634Z,20.43
2018-08-16T22:46:24.122Z,20.83
2018-08-16T22:48:53.146Z,15.60
2018-08-16T22:51:21.715Z,19.10
2018-08-16T22:53:50.212Z,15.10
2018-08-16T22:56:18.766Z,21.00
2018-08-16T22:58:47.268Z,16.13
2018-08-16T23:01:15.831Z,13.00
2018-08-16T23:03:44.348Z,20.03
2018-08-16T23:06:12.893Z,19.27
2018-08-16T23:08:41.411Z,23.37
2018-08-16T23:11:09.921Z,19.83
2018-08-16T23:13:38.439Z,17.80
2018-08-16T23:16:06.953Z,20.17
2018-08-16T23:18:35.640Z,21.07
2018-08-16T23:21:04.237Z,20.00
2018-08-16T23:23:32.769Z,22.70
2018-08-16T23:26:01.308Z,32.13
2018-08-16T23:28:29.845Z,16.27
2018-08-16T23:30:58.357Z,47.60
2018-08-16T23:33:26.951Z,19.53
2018-08-16T23:35:55.560Z,26.80
2018-08-16T23:38:24.086Z,24.07
2018-08-16T23:40:52.636Z,26.17
2018-08-16T23:43:21.182Z,21.73
2018-08-16T23:45:49.742Z,25.60
2018-08-16T23:48:29.839Z,29.63
2018-08-16T23:50:58.895Z,22.20
2018-08-16T23:53:27.800Z,18.60
2018-08-16T23:55:56.623Z,17.60
2018-08-16T23:58:25.168Z,24.30
